createdAt,value
2023-03-15T00:02:10.767Z,3.23
2023-03-15T00:04:38.598Z,3.30
2023-03-15T00:07:08.533Z,2.67
2023-03-15T00:09:36.279Z,3.57
2023-03-15T00:12:08.615Z,2.70
2023-03-15T00:14:37.884Z,3.83
2023-03-15T00:17:07.828Z,2.90
2023-03-15T00:19:39.929Z,2.33
2023-03-15T00:22:08.031Z,3.47
2023-03-15T00:24:36.036Z,2.53
2023-03-15T00:27:05.258Z,2.87
2023-03-15T00:29:33.356Z,2.80
2023-03-15T00:32:06.529Z,2.60
2023-03-15T00:34:38.582Z,2.63
2023-03-15T00:37:06.379Z,2.83
2023-03-15T00:39:37.735Z,1.60
2023-03-15T00:42:05.813Z,2.33
2023-03-15T00:44:36.031Z,2.60
2023-03-15T00:47:03.824Z,1.80
2023-03-15T00:49:36.117Z,2.10
2023-03-15T00:52:09.119Z,2.20
2023-03-15T00:54:37.264Z,2.10
2023-03-15T00:57:10.527Z,2.40
2023-03-15T00:59:40.794Z,2.00
2023-03-15T01:02:08.722Z,1.90
2023-03-15T01:04:36.929Z,1.77
2023-03-15T01:07:06.576Z,1.60
2023-03-15T01:09:35.704Z,2.63
2023-03-15T01:12:03.632Z,1.70
2023-03-15T01:14:34.131Z,1.83
2023-03-15T01:17:02.051Z,1.80
2023-03-15T01:19:29.777Z,2.70
2023-03-15T01:21:57.562Z,2.40
2023-03-15T01:24:26.764Z,2.20
2023-03-15T01:26:54.627Z,3.23
2023-03-15T01:29:25.209Z,1.60
2023-03-15T01:31:53.031Z,2.00
2023-03-15T01:34:24.754Z,1.30
2023-03-15T01:36:55.361Z,1.60
2023-03-15T01:39:23.183Z,1.50
2023-03-15T01:41:52.917Z,1.70
2023-03-15T01:44:21.959Z,1.30
2023-03-15T01:46:50.084Z,1.20
2023-03-15T01:49:29.877Z,1.60
2023-03-15T01:52:00.128Z,1.17
2023-03-15T01:54:31.063Z,1.00
2023-03-15T01:57:06.204Z,1.03
2023-03-15T01:59:36.729Z,1.40
2023-03-15T02:02:06.573Z,1.23
2023-03-15T02:04:38.256Z,0.93
2023-03-15T02:07:07.096Z,1.73
2023-03-15T02:09:45.129Z,1.37
2023-03-15T02:12:17.304Z,1.40
2023-03-15T02:14:45.729Z,1.50
2023-03-15T02:17:16.021Z,1.20
2023-03-15T02:19:51.155Z,0.90
2023-03-15T02:22:31.193Z,1.30
2023-03-15T02:25:05.429Z,1.30
2023-03-15T02:27:36.865Z,1.40
2023-03-15T02:30:08.378Z,1.40
2023-03-15T02:32:36.269Z,1.40
2023-03-15T02:35:07.599Z,1.37
2023-03-15T02:37:38.330Z,1.20
2023-03-15T02:40:21.945Z,0.90
2023-03-15T02:42:54.715Z,1.40
2023-03-15T02:45:25.555Z,0.90
2023-03-15T02:47:58.641Z,1.30
2023-03-15T02:50:28.688Z,1.57
2023-03-15T02:52:58.698Z,1.33
2023-03-15T02:55:35.997Z,1.10
2023-03-15T02:58:05.148Z,1.63
2023-03-15T03:00:32.985Z,1.20
2023-03-15T03:03:00.827Z,1.37
2023-03-15T03:05:31.204Z,1.53
2023-03-15T03:08:03.861Z,1.13
2023-03-15T03:10:37.466Z,1.30
2023-03-15T03:13:07.000Z,1.20
2023-03-15T03:15:35.934Z,1.83
2023-03-15T03:18:14.427Z,1.30
2023-03-15T03:20:47.486Z,1.00
2023-03-15T03:23:15.189Z,1.27
2023-03-15T03:25:45.717Z,1.53
2023-03-15T03:28:20.764Z,2.30
2023-03-15T03:30:50.993Z,2.10
2023-03-15T03:33:18.760Z,2.00
2023-03-15T03:35:46.903Z,1.27
2023-03-15T03:38:16.924Z,1.43
2023-03-15T03:40:47.416Z,1.30
2023-03-15T03:43:21.123Z,1.67
2023-03-15T03:45:52.111Z,2.00
2023-03-15T03:48:19.888Z,1.57
2023-03-15T03:50:50.191Z,1.87
2023-03-15T03:53:21.291Z,1.80
2023-03-15T03:55:54.460Z,2.03
2023-03-15T03:58:23.031Z,1.83
2023-03-15T04:00:56.071Z,3.10
2023-03-15T04:03:27.370Z,1.97
2023-03-15T04:05:56.434Z,2.40
2023-03-15T04:08:27.576Z,2.27
2023-03-15T04:11:04.245Z,1.90
2023-03-15T04:13:34.595Z,2.27
2023-03-15T04:16:06.682Z,2.10
2023-03-15T04:18:37.312Z,2.27
2023-03-15T04:21:10.894Z,2.60
2023-03-15T04:23:41.200Z,2.30
2023-03-15T04:26:08.937Z,2.40
2023-03-15T04:28:39.398Z,3.30
2023-03-15T04:31:10.945Z,2.50
2023-03-15T04:33:39.010Z,2.50
2023-03-15T04:36:07.430Z,2.23
2023-03-15T04:38:35.687Z,2.83
2023-03-15T04:41:11.065Z,2.40
2023-03-15T04:43:39.243Z,2.10
2023-03-15T04:46:10.325Z,2.70
2023-03-15T04:48:43.822Z,2.63
2023-03-15T04:51:12.139Z,2.50
2023-03-15T04:53:42.257Z,2.30
2023-03-15T04:56:11.206Z,3.47
2023-03-15T04:58:39.294Z,2.17
2023-03-15T05:01:11.389Z,3.70
2023-03-15T05:03:39.683Z,2.90
2023-03-15T05:06:09.371Z,2.13
2023-03-15T05:08:40.832Z,1.87
2023-03-15T05:11:08.674Z,2.43
2023-03-15T05:13:38.661Z,3.20
2023-03-15T05:16:11.014Z,2.40
2023-03-15T05:18:38.889Z,2.73
2023-03-15T05:21:07.179Z,2.80
2023-03-15T05:23:44.656Z,2.30
2023-03-15T05:26:13.531Z,2.50
2023-03-15T05:28:45.396Z,2.20
2023-03-15T05:31:14.681Z,2.40
2023-03-15T05:33:47.194Z,2.70
2023-03-15T05:36:15.541Z,2.57
2023-03-15T05:38:46.753Z,2.90
2023-03-15T05:41:18.445Z,2.33
2023-03-15T05:43:49.252Z,2.80
2023-03-15T05:46:18.715Z,2.43
2023-03-15T05:48:50.309Z,3.03
2023-03-15T05:51:18.208Z,3.53
2023-03-15T05:53:48.672Z,2.50
2023-03-15T05:56:18.535Z,2.43
2023-03-15T05:58:48.349Z,2.67
2023-03-15T06:01:16.078Z,2.13
2023-03-15T06:03:45.368Z,2.67
2023-03-15T06:06:13.213Z,3.17
2023-03-15T06:08:46.300Z,3.23
2023-03-15T06:11:24.443Z,3.27
2023-03-15T06:13:57.633Z,3.60
2023-03-15T06:16:28.671Z,3.70
2023-03-15T06:18:58.180Z,4.00
2023-03-15T06:21:26.190Z,4.03
2023-03-15T06:23:54.381Z,3.50
2023-03-15T06:26:26.296Z,3.00
2023-03-15T06:28:54.277Z,3.00
2023-03-15T06:31:23.235Z,3.13
2023-03-15T06:33:51.159Z,3.53
2023-03-15T06:36:20.545Z,3.97
2023-03-15T06:38:48.703Z,3.67
2023-03-15T06:41:22.662Z,2.77
2023-03-15T06:43:50.868Z,3.10
2023-03-15T06:46:19.104Z,3.23
2023-03-15T06:48:49.108Z,3.03
2023-03-15T06:51:19.873Z,4.10
2023-03-15T06:53:57.872Z,2.93
2023-03-15T06:56:25.896Z,3.47
2023-03-15T06:59:00.070Z,3.50
2023-03-15T07:01:28.356Z,2.43
2023-03-15T07:03:57.934Z,3.30
2023-03-15T07:06:27.686Z,1.70
2023-03-15T07:08:57.275Z,2.53
2023-03-15T07:11:25.634Z,2.90
2023-03-15T07:13:55.980Z,4.07
2023-03-15T07:16:26.816Z,3.03
2023-03-15T07:19:01.716Z,2.70
2023-03-15T07:21:29.898Z,2.63
2023-03-15T07:24:00.222Z,2.47
2023-03-15T07:26:29.227Z,1.80
2023-03-15T07:28:59.782Z,2.23
2023-03-15T07:31:27.926Z,2.10
2023-03-15T07:33:56.323Z,3.73
2023-03-15T07:36:24.237Z,1.63
2023-03-15T07:38:52.396Z,1.87
2023-03-15T07:41:23.011Z,1.50
2023-03-15T07:43:50.946Z,2.57
2023-03-15T07:46:18.962Z,2.33
2023-03-15T07:48:49.776Z,1.80
2023-03-15T07:51:17.703Z,2.03
2023-03-15T07:54:01.481Z,1.60
2023-03-15T07:56:30.776Z,2.60
2023-03-15T07:58:59.433Z,1.87
2023-03-15T08:01:27.526Z,1.57
2023-03-15T08:03:55.571Z,1.80
2023-03-15T08:06:26.223Z,1.40
2023-03-15T08:08:54.122Z,1.60
2023-03-15T08:11:27.301Z,1.60
2023-03-15T08:14:00.106Z,2.60
2023-03-15T08:16:28.183Z,1.40
2023-03-15T08:18:56.250Z,1.70
2023-03-15T08:21:35.563Z,1.80
2023-03-15T08:24:06.971Z,2.00
2023-03-15T08:26:34.733Z,1.50
2023-03-15T08:29:08.311Z,1.43
2023-03-15T08:31:36.266Z,1.10
2023-03-15T08:34:04.406Z,1.90
2023-03-15T08:39:31.780Z,1.37
2023-03-15T08:41:59.649Z,1.53
2023-03-15T08:44:28.965Z,2.43
2023-03-15T08:46:57.223Z,1.53
2023-03-15T08:49:25.521Z,1.43
2023-03-15T08:51:53.329Z,1.13
2023-03-15T08:54:22.360Z,1.73
2023-03-15T08:56:50.106Z,1.30
2023-03-15T08:59:31.487Z,1.13
2023-03-15T09:02:03.941Z,1.30
2023-03-15T09:04:39.424Z,1.43
2023-03-15T09:07:07.650Z,1.47
2023-03-15T09:09:36.722Z,1.20
2023-03-15T09:12:05.513Z,1.30
2023-03-15T09:14:33.927Z,1.20
2023-03-15T09:17:06.845Z,1.90
2023-03-15T09:19:34.788Z,0.93
2023-03-15T09:22:16.304Z,1.20
2023-03-15T09:24:44.969Z,1.43
2023-03-15T09:27:13.461Z,1.20
2023-03-15T09:29:41.481Z,1.33
2023-03-15T09:32:12.164Z,0.90
2023-03-15T09:34:47.149Z,1.07
2023-03-15T09:37:18.412Z,1.13
2023-03-15T09:39:50.977Z,1.80
2023-03-15T09:42:27.636Z,1.00
2023-03-15T09:45:06.656Z,1.20
2023-03-15T09:47:42.753Z,1.30
2023-03-15T09:50:19.223Z,0.70
2023-03-15T09:52:52.333Z,1.50
2023-03-15T09:55:23.557Z,1.10
2023-03-15T09:57:58.533Z,1.30
2023-03-15T10:00:32.502Z,1.03
2023-03-15T10:03:08.396Z,1.53
2023-03-15T10:08:26.124Z,0.97
2023-03-15T10:10:55.880Z,0.70
2023-03-15T10:13:34.122Z,1.00
2023-03-15T10:16:11.137Z,1.20
2023-03-15T10:18:50.712Z,1.20
2023-03-15T10:21:32.562Z,1.13
2023-03-15T10:24:05.999Z,1.20
2023-03-15T10:26:37.901Z,1.93
2023-03-15T10:29:17.468Z,1.23
2023-03-15T10:31:47.705Z,1.00
2023-03-15T10:34:18.081Z,1.83
2023-03-15T10:36:52.210Z,2.40
2023-03-15T10:39:21.259Z,2.10
2023-03-15T10:41:51.278Z,1.87
2023-03-15T10:44:22.576Z,1.50
2023-03-15T10:47:22.171Z,1.73
2023-03-15T10:49:58.663Z,1.17
2023-03-15T10:52:35.802Z,0.90
2023-03-15T10:55:08.207Z,0.80
2023-03-15T11:00:40.737Z,0.73
2023-03-15T11:03:14.690Z,1.03
2023-03-15T11:05:54.786Z,0.80
2023-03-15T11:08:25.042Z,0.93
2023-03-15T11:10:59.045Z,1.27
2023-03-15T11:13:29.278Z,0.93
2023-03-15T11:16:04.245Z,0.80
2023-03-15T11:18:36.926Z,0.87
2023-03-15T11:21:09.929Z,0.90
2023-03-15T11:23:39.962Z,0.93
2023-03-15T11:26:08.671Z,1.00
2023-03-15T11:28:39.855Z,1.00
2023-03-15T11:31:11.020Z,0.73
2023-03-15T11:33:47.068Z,0.80
2023-03-15T11:36:20.209Z,2.00
2023-03-15T11:38:49.714Z,1.27
2023-03-15T11:41:30.701Z,1.03
2023-03-15T11:44:05.760Z,1.07
2023-03-15T11:46:37.374Z,0.90
2023-03-15T11:49:13.691Z,1.00
2023-03-15T11:51:45.739Z,0.80
2023-03-15T11:54:15.938Z,1.50
2023-03-15T11:56:51.532Z,0.80
2023-03-15T11:59:21.295Z,1.27
2023-03-15T12:01:52.530Z,1.50
2023-03-15T12:04:47.431Z,0.90
2023-03-15T12:07:39.460Z,1.07
2023-03-15T12:10:22.088Z,1.13
2023-03-15T12:12:58.699Z,1.00
2023-03-15T12:15:48.124Z,0.90
2023-03-15T12:18:22.843Z,1.70
2023-03-15T12:21:06.725Z,1.20
2023-03-15T12:23:39.937Z,1.47
2023-03-15T12:26:12.398Z,1.30
2023-03-15T12:28:44.991Z,0.87
2023-03-15T12:31:15.624Z,0.90
2023-03-15T12:33:48.652Z,0.90
2023-03-15T12:36:33.594Z,1.17
2023-03-15T12:39:05.821Z,1.10
2023-03-15T12:41:40.852Z,1.30
2023-03-15T12:44:28.815Z,1.37
2023-03-15T12:47:02.605Z,1.10
2023-03-15T12:49:40.336Z,1.03
2023-03-15T12:52:27.089Z,1.10
2023-03-15T12:55:03.176Z,1.70
2023-03-15T12:57:33.174Z,1.30
2023-03-15T13:00:08.220Z,0.93
2023-03-15T13:02:43.950Z,1.03
2023-03-15T13:05:31.860Z,1.50
2023-03-15T13:08:10.492Z,1.70
2023-03-15T13:10:48.751Z,1.50
2023-03-15T13:13:27.691Z,1.47
2023-03-15T13:16:06.854Z,1.97
2023-03-15T13:18:43.110Z,1.57
2023-03-15T13:21:17.749Z,1.70
2023-03-15T13:23:51.960Z,1.50
2023-03-15T13:26:44.388Z,1.50
2023-03-15T13:29:19.381Z,1.40
2023-03-15T13:31:51.148Z,1.60
2023-03-15T13:34:22.630Z,1.47
2023-03-15T13:36:56.330Z,1.57
2023-03-15T13:39:28.710Z,1.67
2023-03-15T13:42:03.829Z,1.97
2023-03-15T13:44:32.799Z,2.03
2023-03-15T13:47:01.601Z,1.70
2023-03-15T13:49:33.345Z,1.80
2023-03-15T13:52:07.225Z,2.30
2023-03-15T13:54:42.138Z,3.20
2023-03-15T13:57:16.168Z,2.80
2023-03-15T13:59:54.057Z,2.10
2023-03-15T14:02:25.643Z,2.03
2023-03-15T14:05:00.434Z,2.67
2023-03-15T14:07:32.857Z,2.50
2023-03-15T14:10:24.931Z,1.87
2023-03-15T14:12:54.945Z,1.87
2023-03-15T14:15:25.642Z,1.70
2023-03-15T14:18:03.455Z,1.90
2023-03-15T14:20:41.514Z,1.67
2023-03-15T14:23:12.584Z,1.93
2023-03-15T14:25:45.845Z,1.63
2023-03-15T14:28:24.860Z,1.83
2023-03-15T14:30:54.894Z,1.93
2023-03-15T14:33:32.656Z,2.17
2023-03-15T14:36:01.634Z,1.60
2023-03-15T14:38:34.752Z,1.40
2023-03-15T14:41:22.981Z,1.50
2023-03-15T14:43:53.842Z,1.70
2023-03-15T14:46:23.950Z,1.97
2023-03-15T14:48:53.259Z,2.27
2023-03-15T14:51:24.799Z,1.07
2023-03-15T14:53:56.293Z,1.53
2023-03-15T14:56:25.315Z,1.37
2023-03-15T14:58:55.215Z,1.70
2023-03-15T15:01:30.079Z,1.47
2023-03-15T15:04:03.280Z,1.60
2023-03-15T15:06:33.280Z,1.20
2023-03-15T15:09:02.593Z,1.23
2023-03-15T15:11:31.475Z,1.50
2023-03-15T15:14:01.523Z,1.83
2023-03-15T15:16:33.384Z,1.10
2023-03-15T15:19:01.973Z,1.80
2023-03-15T15:21:34.048Z,1.10
2023-03-15T15:24:03.230Z,1.70
2023-03-15T15:26:34.556Z,2.30
2023-03-15T15:29:06.119Z,2.00
2023-03-15T15:31:35.730Z,1.87
2023-03-15T15:34:03.666Z,2.20
2023-03-15T15:36:33.476Z,2.00
2023-03-15T15:39:06.460Z,1.47
2023-03-15T15:41:37.588Z,1.87
2023-03-15T15:44:13.833Z,2.10
2023-03-15T15:46:41.703Z,2.37
2023-03-15T15:49:28.129Z,2.50
2023-03-15T15:51:56.063Z,3.33
2023-03-15T15:54:26.847Z,3.43
2023-03-15T15:56:57.150Z,2.83
2023-03-15T15:59:34.081Z,2.63
2023-03-15T16:02:10.157Z,2.20
2023-03-15T16:04:40.623Z,2.97
2023-03-15T16:07:11.209Z,3.40
2023-03-15T16:09:40.489Z,2.70
2023-03-15T16:12:13.714Z,2.77
2023-03-15T16:14:43.242Z,2.77
2023-03-15T16:17:15.910Z,3.17
2023-03-15T16:19:44.283Z,3.50
2023-03-15T16:22:12.547Z,2.30
2023-03-15T16:24:45.480Z,2.53
2023-03-15T16:27:15.581Z,2.90
2023-03-15T16:29:48.592Z,2.70
2023-03-15T16:32:32.839Z,3.17
2023-03-15T16:35:10.669Z,3.23
2023-03-15T16:37:41.634Z,2.70
2023-03-15T16:40:18.772Z,2.70
2023-03-15T16:42:49.667Z,2.37
2023-03-15T16:45:20.441Z,3.10
2023-03-15T16:47:48.994Z,2.70
2023-03-15T16:50:19.973Z,2.50
2023-03-15T16:52:49.542Z,2.83
2023-03-15T16:55:21.974Z,2.90
2023-03-15T16:57:49.792Z,2.30
2023-03-15T17:00:24.978Z,2.80
2023-03-15T17:02:53.488Z,2.87
2023-03-15T17:05:25.752Z,2.70
2023-03-15T17:07:54.880Z,2.60
2023-03-15T17:10:25.304Z,2.00
2023-03-15T17:12:53.617Z,2.30
2023-03-15T17:15:25.545Z,2.50
2023-03-15T17:17:53.804Z,3.60
2023-03-15T17:20:28.307Z,2.90
2023-03-15T17:23:04.810Z,3.03
2023-03-15T17:25:35.639Z,2.40
2023-03-15T17:28:06.893Z,2.73
2023-03-15T17:30:37.539Z,3.20
2023-03-15T17:33:06.560Z,2.90
2023-03-15T17:35:38.807Z,4.20
2023-03-15T17:38:08.765Z,4.93
2023-03-15T17:40:37.393Z,3.60
2023-03-15T17:43:08.504Z,3.97
2023-03-15T17:45:42.303Z,4.67
2023-03-15T17:48:10.278Z,4.60
2023-03-15T17:50:38.762Z,3.70
2023-03-15T17:53:08.467Z,4.07
2023-03-15T17:55:36.346Z,3.17
2023-03-15T17:58:04.696Z,4.10
2023-03-15T18:00:32.785Z,4.70
2023-03-15T18:03:04.488Z,5.17
2023-03-15T18:05:32.383Z,5.03
2023-03-15T18:08:02.780Z,5.10
2023-03-15T18:10:35.326Z,6.30
2023-03-15T18:13:03.873Z,5.43
2023-03-15T18:15:40.302Z,4.97
2023-03-15T18:18:10.146Z,4.40
2023-03-15T18:20:40.771Z,5.10
2023-03-15T18:23:09.372Z,5.93
2023-03-15T18:25:37.655Z,5.13
2023-03-15T18:28:05.926Z,5.03
2023-03-15T18:30:34.316Z,8.60
2023-03-15T18:33:05.936Z,11.03
2023-03-15T18:35:40.225Z,10.80
2023-03-15T18:38:10.307Z,9.20
2023-03-15T18:40:38.239Z,7.57
2023-03-15T18:43:10.023Z,6.90
2023-03-15T18:45:38.358Z,8.60
2023-03-15T18:48:09.756Z,6.30
2023-03-15T18:50:41.917Z,6.83
2023-03-15T18:53:10.513Z,13.93
2023-03-15T18:55:39.788Z,11.80
2023-03-15T18:58:13.074Z,11.67
2023-03-15T19:00:48.995Z,10.63
2023-03-15T19:03:22.235Z,11.10
2023-03-15T19:05:55.037Z,10.33
2023-03-15T19:08:25.513Z,9.97
2023-03-15T19:10:59.394Z,10.20
2023-03-15T19:13:27.306Z,8.90
2023-03-15T19:15:56.954Z,10.23
2023-03-15T19:18:28.469Z,8.10
2023-03-15T19:20:58.022Z,9.60
2023-03-15T19:23:25.852Z,10.60
2023-03-15T19:25:53.690Z,9.47
2023-03-15T19:28:24.548Z,9.27
2023-03-15T19:30:57.169Z,8.80
2023-03-15T19:33:24.999Z,9.07
2023-03-15T19:35:53.390Z,7.07
2023-03-15T19:38:22.622Z,10.13
2023-03-15T19:40:56.690Z,9.50
2023-03-15T19:43:24.666Z,10.40
2023-03-15T19:46:00.011Z,9.50
2023-03-15T19:48:31.760Z,9.13
2023-03-15T19:50:59.577Z,9.40
2023-03-15T19:53:32.470Z,10.43
2023-03-15T19:56:05.030Z,10.67
2023-03-15T19:58:35.707Z,11.60
2023-03-15T20:01:03.556Z,11.33
2023-03-15T20:03:38.047Z,10.37
2023-03-15T20:06:08.360Z,14.23
2023-03-15T20:08:40.376Z,12.53
2023-03-15T20:11:09.234Z,12.87
2023-03-15T20:13:38.159Z,13.73
2023-03-15T20:16:09.579Z,14.93
2023-03-15T20:18:40.522Z,15.60
2023-03-15T20:21:08.350Z,16.00
2023-03-15T20:23:40.567Z,17.43
2023-03-15T20:26:10.899Z,18.27
2023-03-15T20:28:38.900Z,17.50
2023-03-15T20:31:12.233Z,17.33
2023-03-15T20:33:40.782Z,15.77
2023-03-15T20:36:11.166Z,18.30
2023-03-15T20:38:46.631Z,18.70
2023-03-15T20:41:15.196Z,15.70
2023-03-15T20:43:48.839Z,16.37
2023-03-15T20:46:19.401Z,17.03
2023-03-15T20:48:47.687Z,16.40
2023-03-15T20:51:16.002Z,17.00
2023-03-15T20:53:46.883Z,14.87
2023-03-15T20:56:14.690Z,14.07
2023-03-15T20:58:42.692Z,11.93
2023-03-15T21:01:19.572Z,13.50
2023-03-15T21:03:56.068Z,11.27
2023-03-15T21:06:24.117Z,10.70
2023-03-15T21:08:53.342Z,13.00
2023-03-15T21:11:21.201Z,11.90
2023-03-15T21:13:49.748Z,10.53
2023-03-15T21:16:18.313Z,10.20
2023-03-15T21:18:51.985Z,11.60
2023-03-15T21:21:21.177Z,10.73
2023-03-15T21:23:49.510Z,10.50
2023-03-15T21:26:18.910Z,11.57
2023-03-15T21:28:47.056Z,12.30
2023-03-15T21:31:16.013Z,10.80
2023-03-15T21:33:43.862Z,11.97
2023-03-15T21:36:11.668Z,10.93
2023-03-15T21:38:39.470Z,11.83
2023-03-15T21:41:11.297Z,11.27
2023-03-15T21:43:41.497Z,10.63
2023-03-15T21:46:14.044Z,13.90
2023-03-15T21:48:43.591Z,11.90
2023-03-15T21:51:14.693Z,12.17
2023-03-15T21:53:46.340Z,11.57
2023-03-15T21:56:14.928Z,11.23
2023-03-15T21:58:44.471Z,13.07
2023-03-15T22:01:13.966Z,12.57
2023-03-15T22:03:44.629Z,10.63
2023-03-15T22:06:13.536Z,14.80
2023-03-15T22:08:42.009Z,12.93
2023-03-15T22:11:18.919Z,11.40
2023-03-15T22:13:47.997Z,11.80
2023-03-15T22:16:16.254Z,9.80
2023-03-15T22:18:52.974Z,9.90
2023-03-15T22:21:21.808Z,10.47
2023-03-15T22:23:50.003Z,10.20
2023-03-15T22:26:18.146Z,10.20
2023-03-15T22:28:46.529Z,8.90
2023-03-15T22:31:17.698Z,9.00
2023-03-15T22:33:48.977Z,8.87
2023-03-15T22:36:20.480Z,10.00
2023-03-15T22:38:50.031Z,9.57
2023-03-15T22:41:19.745Z,9.20
2023-03-15T22:43:52.554Z,10.10
2023-03-15T22:46:22.764Z,8.83
2023-03-15T22:48:52.711Z,8.73
2023-03-15T22:51:20.862Z,10.93
2023-03-15T22:53:50.158Z,9.57
2023-03-15T22:56:18.174Z,11.37
2023-03-15T22:58:48.803Z,10.77
2023-03-15T23:01:16.642Z,14.40
2023-03-15T23:03:45.881Z,13.30
2023-03-15T23:06:14.177Z,15.30
2023-03-15T23:08:43.311Z,14.97
2023-03-15T23:11:12.645Z,13.47
2023-03-15T23:13:48.351Z,13.23
2023-03-15T23:16:17.928Z,14.00
2023-03-15T23:18:53.972Z,13.60
2023-03-15T23:21:23.388Z,9.93
2023-03-15T23:23:54.052Z,13.87
2023-03-15T23:26:25.792Z,12.60
2023-03-15T23:28:53.729Z,11.27
2023-03-15T23:31:21.902Z,10.50
2023-03-15T23:33:51.735Z,11.03
2023-03-15T23:36:22.156Z,11.57
2023-03-15T23:38:53.714Z,12.07
2023-03-15T23:41:22.914Z,10.50
2023-03-15T23:43:53.942Z,12.03
2023-03-15T23:46:23.585Z,10.53
2023-03-15T23:48:56.026Z,11.70
2023-03-15T23:51:24.178Z,10.77
2023-03-15T23:53:54.647Z,9.67
2023-03-15T23:56:22.531Z,9.67
2023-03-15T23:58:52.795Z,10.73
